createdAt,value
2023-02-15T00:01:49.702Z,0.60
2023-02-15T00:04:19.992Z,0.57
2023-02-15T00:06:47.615Z,0.56
2023-02-15T00:09:16.195Z,0.54
2023-02-15T00:11:50.172Z,0.53
2023-02-15T00:14:20.424Z,0.50
2023-02-15T00:16:49.802Z,0.48
2023-02-15T00:19:19.042Z,0.45
2023-02-15T00:21:47.828Z,0.42
2023-02-15T00:24:19.535Z,0.40
2023-02-15T00:26:48.187Z,0.37
2023-02-15T00:29:18.013Z,0.37
2023-02-15T00:31:47.073Z,0.35
2023-02-15T00:34:17.142Z,0.32
2023-02-15T00:36:45.581Z,0.29
2023-02-15T00:39:16.934Z,0.27
2023-02-15T00:41:47.973Z,0.25
2023-02-15T00:44:16.168Z,0.24
2023-02-15T00:46:45.112Z,0.22
2023-02-15T00:49:13.455Z,0.18
2023-02-15T00:51:40.992Z,0.16
2023-02-15T00:54:09.349Z,0.14
2023-02-15T00:56:37.354Z,0.10
2023-02-15T00:59:05.491Z,0.07
2023-02-15T01:01:34.363Z,0.06
2023-02-15T01:04:02.769Z,0.05
2023-02-15T01:06:30.941Z,0.03
2023-02-15T01:08:58.504Z,-0.00
2023-02-15T01:11:27.224Z,-0.03
2023-02-15T01:13:56.340Z,-0.05
2023-02-15T01:16:25.927Z,-0.07
2023-02-15T01:18:54.942Z,-0.12
2023-02-15T01:21:25.614Z,-0.17
2023-02-15T01:23:53.296Z,-0.21
2023-02-15T01:26:20.920Z,-0.24
2023-02-15T01:28:49.037Z,-0.27
2023-02-15T01:31:20.763Z,-0.28
2023-02-15T01:33:48.913Z,-0.33
2023-02-15T01:36:17.815Z,-0.38
2023-02-15T01:38:45.662Z,-0.41
2023-02-15T01:41:26.928Z,-0.43
2023-02-15T01:43:56.999Z,-0.47
2023-02-15T01:46:29.548Z,-0.53
2023-02-15T01:49:02.722Z,-0.57
2023-02-15T01:51:35.325Z,-0.61
2023-02-15T01:54:10.080Z,-0.63
2023-02-15T01:56:40.455Z,-0.66
2023-02-15T01:59:15.501Z,-0.70
2023-02-15T02:01:44.093Z,-0.72
2023-02-15T02:04:18.050Z,-0.77
2023-02-15T02:06:49.535Z,-0.83
2023-02-15T02:09:17.212Z,-0.89
2023-02-15T02:11:48.822Z,-0.91
2023-02-15T02:14:17.180Z,-0.91
2023-02-15T02:16:53.550Z,-0.92
2023-02-15T02:19:56.374Z,-0.95
2023-02-15T02:22:52.642Z,-0.95
2023-02-15T02:26:00.034Z,-0.99
2023-02-15T02:28:53.477Z,-1.01
2023-02-15T02:31:39.978Z,-1.02
2023-02-15T02:34:14.758Z,-1.03
2023-02-15T02:36:50.300Z,-1.02
2023-02-15T02:39:31.505Z,-1.03
2023-02-15T02:42:07.627Z,-1.02
2023-02-15T02:44:43.213Z,-1.01
2023-02-15T02:47:16.566Z,-0.99
2023-02-15T02:49:44.946Z,-0.99
2023-02-15T02:52:35.942Z,-0.98
2023-02-15T02:55:07.439Z,-0.98
2023-02-15T02:57:37.764Z,-0.98
2023-02-15T03:00:09.225Z,-0.97
2023-02-15T03:02:42.328Z,-0.97
2023-02-15T03:05:14.428Z,-0.97
2023-02-15T03:07:44.229Z,-0.98
2023-02-15T03:10:12.120Z,-0.99
2023-02-15T03:12:42.041Z,-0.99
2023-02-15T03:15:15.603Z,-1.00
2023-02-15T03:17:47.281Z,-1.00
2023-02-15T03:20:21.042Z,-1.02
2023-02-15T03:22:52.663Z,-1.01
2023-02-15T03:25:24.151Z,-1.03
2023-02-15T03:27:56.077Z,-1.06
2023-02-15T03:30:25.300Z,-1.07
2023-02-15T03:32:58.317Z,-1.08
2023-02-15T03:35:33.864Z,-1.07
2023-02-15T03:38:06.887Z,-1.07
2023-02-15T03:40:56.807Z,-1.10
2023-02-15T03:43:33.241Z,-1.17
2023-02-15T03:46:07.194Z,-1.24
2023-02-15T03:48:43.731Z,-1.29
2023-02-15T03:51:36.703Z,-1.31
2023-02-15T03:54:08.838Z,-1.33
2023-02-15T03:56:39.526Z,-1.33
2023-02-15T03:59:25.961Z,-1.32
2023-02-15T04:02:07.212Z,-1.33
2023-02-15T04:04:37.069Z,-1.38
2023-02-15T04:07:07.346Z,-1.42
2023-02-15T04:09:53.610Z,-1.49
2023-02-15T04:12:21.680Z,-1.52
2023-02-15T04:15:08.110Z,-1.54
2023-02-15T04:17:37.467Z,-1.55
2023-02-15T04:20:25.782Z,-1.55
2023-02-15T04:23:11.759Z,-1.56
2023-02-15T04:25:39.335Z,-1.57
2023-02-15T04:28:07.878Z,-1.57
2023-02-15T04:30:35.483Z,-1.56
2023-02-15T04:33:03.569Z,-1.56
2023-02-15T04:35:32.026Z,-1.57
2023-02-15T04:38:00.037Z,-1.57
2023-02-15T04:40:27.615Z,-1.57
2023-02-15T04:42:55.225Z,-1.58
2023-02-15T04:45:22.817Z,-1.59
2023-02-15T04:47:52.105Z,-1.60
2023-02-15T04:50:19.749Z,-1.58
2023-02-15T04:52:47.382Z,-1.59
2023-02-15T04:55:15.284Z,-1.59
2023-02-15T04:57:42.816Z,-1.60
2023-02-15T05:00:11.898Z,-1.61
2023-02-15T05:02:39.612Z,-1.62
2023-02-15T05:05:09.890Z,-1.62
2023-02-15T05:07:37.436Z,-1.63
2023-02-15T05:10:07.374Z,-1.64
2023-02-15T05:12:39.081Z,-1.64
2023-02-15T05:15:11.963Z,-1.66
2023-02-15T05:17:40.443Z,-1.68
2023-02-15T05:20:10.724Z,-1.68
2023-02-15T05:22:41.463Z,-1.69
2023-02-15T05:25:28.963Z,-1.72
2023-02-15T05:28:15.056Z,-1.74
2023-02-15T05:30:43.407Z,-1.76
2023-02-15T05:33:11.115Z,-1.77
2023-02-15T05:35:38.703Z,-1.80
2023-02-15T05:38:06.262Z,-1.83
2023-02-15T05:40:34.066Z,-1.85
2023-02-15T05:43:01.643Z,-1.87
2023-02-15T05:45:29.176Z,-1.88
2023-02-15T05:47:58.457Z,-1.90
2023-02-15T05:50:26.735Z,-1.90
2023-02-15T05:52:54.312Z,-1.90
2023-02-15T05:55:21.872Z,-1.90
2023-02-15T05:57:49.767Z,-1.90
2023-02-15T06:00:18.737Z,-1.89
2023-02-15T06:02:46.299Z,-1.90
2023-02-15T06:05:14.257Z,-1.89
2023-02-15T06:07:44.981Z,-1.87
2023-02-15T06:10:12.871Z,-1.86
2023-02-15T06:12:42.310Z,-1.84
2023-02-15T06:15:10.482Z,-1.82
2023-02-15T06:17:38.031Z,-1.78
2023-02-15T06:20:08.534Z,-1.74
2023-02-15T06:22:36.190Z,-1.71
2023-02-15T06:25:04.236Z,-1.69
2023-02-15T06:27:31.813Z,-1.67
2023-02-15T06:29:59.384Z,-1.63
2023-02-15T06:32:26.944Z,-1.59
2023-02-15T06:34:54.682Z,-1.55
2023-02-15T06:37:22.200Z,-1.52
2023-02-15T06:39:49.749Z,-1.49
2023-02-15T06:42:18.378Z,-1.46
2023-02-15T06:44:46.176Z,-1.45
2023-02-15T06:47:26.311Z,-1.44
2023-02-15T06:49:55.746Z,-1.43
2023-02-15T06:52:23.488Z,-1.40
2023-02-15T06:54:51.059Z,-1.35
2023-02-15T06:57:22.983Z,-1.32
2023-02-15T07:00:12.016Z,-1.29
2023-02-15T07:03:11.992Z,-1.24
2023-02-15T07:06:07.343Z,-1.17
2023-02-15T07:08:37.841Z,-1.09
2023-02-15T07:11:26.083Z,-1.00
2023-02-15T07:13:55.294Z,-0.93
2023-02-15T07:16:26.996Z,-0.87
2023-02-15T07:19:04.717Z,-0.81
2023-02-15T07:21:34.284Z,-0.75
2023-02-15T07:24:04.020Z,-0.69
2023-02-15T07:26:56.938Z,-0.62
2023-02-15T07:29:39.827Z,-0.56
2023-02-15T07:32:14.864Z,-0.48
2023-02-15T07:34:46.872Z,-0.38
2023-02-15T07:37:15.644Z,-0.29
2023-02-15T07:39:57.537Z,-0.19
2023-02-15T07:42:26.542Z,-0.10
2023-02-15T07:44:54.768Z,0.01
2023-02-15T07:47:23.886Z,0.12
2023-02-15T07:49:52.350Z,0.23
2023-02-15T07:52:22.132Z,0.33
2023-02-15T07:55:09.551Z,0.45
2023-02-15T07:57:58.837Z,0.55
2023-02-15T08:00:30.844Z,0.64
2023-02-15T08:03:32.084Z,0.73
2023-02-15T08:06:01.237Z,0.88
2023-02-15T08:08:46.258Z,1.38
2023-02-15T08:11:29.538Z,2.51
2023-02-15T08:14:04.346Z,3.12
2023-02-15T08:16:35.331Z,2.75
2023-02-15T08:19:06.176Z,2.47
2023-02-15T08:21:35.602Z,2.29
2023-02-15T08:24:07.317Z,2.17
2023-02-15T08:26:56.409Z,2.07
2023-02-15T08:29:34.591Z,1.99
2023-02-15T08:32:06.086Z,1.96
2023-02-15T08:34:36.624Z,1.90
2023-02-15T08:37:07.667Z,1.90
2023-02-15T08:39:35.673Z,1.91
2023-02-15T08:42:15.211Z,1.93
2023-02-15T08:45:02.968Z,1.96
2023-02-15T08:47:32.673Z,1.99
2023-02-15T08:50:00.352Z,2.01
2023-02-15T08:52:28.294Z,2.05
2023-02-15T08:54:55.914Z,2.05
2023-02-15T08:57:27.143Z,2.05
2023-02-15T08:59:58.205Z,2.11
2023-02-15T09:02:25.996Z,2.16
2023-02-15T09:04:57.629Z,2.22
2023-02-15T09:07:33.748Z,2.31
2023-02-15T09:10:01.492Z,2.41
2023-02-15T09:12:29.609Z,2.48
2023-02-15T09:14:57.199Z,2.55
2023-02-15T09:17:25.561Z,2.59
2023-02-15T09:19:53.415Z,2.60
2023-02-15T09:22:24.742Z,2.61
2023-02-15T09:24:58.687Z,2.63
2023-02-15T09:27:27.264Z,2.65
2023-02-15T09:29:55.078Z,2.72
2023-02-15T09:32:23.095Z,2.79
2023-02-15T09:34:56.285Z,2.86
2023-02-15T09:37:25.964Z,2.93
2023-02-15T09:39:56.577Z,3.01
2023-02-15T09:42:55.616Z,3.10
2023-02-15T09:45:36.927Z,3.18
2023-02-15T09:48:24.323Z,3.27
2023-02-15T09:51:11.339Z,3.33
2023-02-15T09:53:53.673Z,3.41
2023-02-15T09:56:38.653Z,3.50
2023-02-15T09:59:16.141Z,3.61
2023-02-15T10:02:02.851Z,3.70
2023-02-15T10:04:50.582Z,3.77
2023-02-15T10:07:35.232Z,3.82
2023-02-15T10:10:15.543Z,3.86
2023-02-15T10:13:10.281Z,3.90
2023-02-15T10:15:52.937Z,3.96
2023-02-15T10:18:32.925Z,4.01
2023-02-15T10:21:10.448Z,4.07
2023-02-15T10:40:40.626Z,4.43
2023-02-15T10:43:55.852Z,4.48
2023-02-15T10:47:02.186Z,4.52
2023-02-15T10:54:06.109Z,4.54
2023-02-15T11:00:47.856Z,4.54
2023-02-15T11:08:02.029Z,4.64
2023-02-15T11:10:35.829Z,4.69
2023-02-15T11:13:10.562Z,4.72
2023-02-15T11:15:45.593Z,4.73
2023-02-15T11:18:22.430Z,4.76
2023-02-15T11:20:55.170Z,4.80
2023-02-15T11:23:25.002Z,4.84
2023-02-15T11:26:00.265Z,4.94
2023-02-15T11:28:35.127Z,5.01
2023-02-15T11:31:30.503Z,5.09
2023-02-15T11:34:13.207Z,5.17
2023-02-15T11:36:47.149Z,5.25
2023-02-15T11:39:18.329Z,5.29
2023-02-15T11:41:52.240Z,5.38
2023-02-15T11:44:24.437Z,5.47
2023-02-15T11:46:59.104Z,5.54
2023-02-15T11:49:30.312Z,5.59
2023-02-15T11:52:01.040Z,5.65
2023-02-15T11:54:35.847Z,5.77
2023-02-15T11:57:12.449Z,5.86
2023-02-15T11:59:45.019Z,5.94
2023-02-15T12:02:20.265Z,6.07
2023-02-15T12:04:57.791Z,6.21
2023-02-15T12:07:29.211Z,6.34
2023-02-15T12:10:04.621Z,6.43
2023-02-15T12:12:34.132Z,6.58
2023-02-15T12:15:04.144Z,6.71
2023-02-15T12:17:48.973Z,6.80
2023-02-15T12:20:31.456Z,6.90
2023-02-15T12:23:08.491Z,6.93
2023-02-15T12:25:44.629Z,7.01
2023-02-15T12:28:32.769Z,7.10
2023-02-15T12:31:05.459Z,7.20
2023-02-15T12:33:41.690Z,7.30
2023-02-15T12:36:20.439Z,7.43
2023-02-15T12:39:18.026Z,7.59
2023-02-15T12:42:00.719Z,7.73
2023-02-15T12:44:42.145Z,7.91
2023-02-15T12:47:33.868Z,8.04
2023-02-15T12:50:35.458Z,8.12
2023-02-15T12:56:23.962Z,8.33
2023-02-15T12:59:10.222Z,9.37
2023-02-15T13:01:38.189Z,11.22
2023-02-15T13:04:17.921Z,12.88
2023-02-15T13:06:52.415Z,14.45
2023-02-15T13:09:28.162Z,15.64
2023-02-15T13:11:57.280Z,16.71
2023-02-15T13:14:33.358Z,17.45
2023-02-15T13:17:12.284Z,18.11
2023-02-15T13:19:50.718Z,18.78
2023-02-15T13:22:52.607Z,19.29
2023-02-15T13:25:44.278Z,19.96
2023-02-15T13:28:19.674Z,20.77
2023-02-15T13:30:55.340Z,21.46
2023-02-15T13:33:43.911Z,21.98
2023-02-15T13:36:21.240Z,22.39
2023-02-15T13:39:09.164Z,22.65
2023-02-15T13:41:52.193Z,22.86
2023-02-15T13:44:39.307Z,23.31
2023-02-15T13:47:32.053Z,23.25
2023-02-15T13:50:38.773Z,23.44
2023-02-15T13:53:27.477Z,23.83
2023-02-15T13:56:08.086Z,24.29
2023-02-15T13:59:19.800Z,24.20
2023-02-15T14:01:56.962Z,24.19
2023-02-15T14:04:47.939Z,23.88
2023-02-15T14:07:46.267Z,23.87
2023-02-15T14:10:48.888Z,23.99
2023-02-15T14:13:51.737Z,24.11
2023-02-15T14:17:00.669Z,23.73
2023-02-15T14:19:40.087Z,23.50
2023-02-15T14:22:15.326Z,23.29
2023-02-15T14:24:50.247Z,21.69
2023-02-15T14:27:27.337Z,19.69
2023-02-15T14:29:58.443Z,18.07
2023-02-15T14:32:33.846Z,16.81
2023-02-15T14:35:04.108Z,15.73
2023-02-15T14:37:43.767Z,14.89
2023-02-15T14:40:44.187Z,14.09
2023-02-15T14:43:20.471Z,13.10
2023-02-15T14:45:53.396Z,12.42
2023-02-15T14:48:26.297Z,11.85
2023-02-15T14:50:53.940Z,11.45
2023-02-15T14:53:39.281Z,11.06
2023-02-15T14:56:18.857Z,10.66
2023-02-15T14:59:13.402Z,10.38
2023-02-15T15:01:42.048Z,10.08
2023-02-15T15:04:14.053Z,9.89
2023-02-15T15:06:44.307Z,9.66
2023-02-15T15:09:22.431Z,9.42
2023-02-15T15:11:52.114Z,9.21
2023-02-15T15:14:41.909Z,9.02
2023-02-15T15:17:15.126Z,8.82
2023-02-15T15:20:13.691Z,8.66
2023-02-15T15:22:42.585Z,8.49
2023-02-15T15:25:42.574Z,8.36
2023-02-15T15:28:10.175Z,8.19
2023-02-15T15:31:04.119Z,8.07
2023-02-15T15:34:04.946Z,7.88
2023-02-15T15:37:11.979Z,7.75
2023-02-15T15:40:21.072Z,7.61
2023-02-15T15:43:02.833Z,7.45
2023-02-15T15:45:47.618Z,7.30
2023-02-15T15:48:39.387Z,7.18
2023-02-15T15:51:12.756Z,7.05
2023-02-15T15:53:44.480Z,6.95
2023-02-15T15:56:19.424Z,6.86
2023-02-15T15:58:52.393Z,6.75
2023-02-15T16:01:26.961Z,6.64
2023-02-15T16:03:56.853Z,6.54
2023-02-15T16:06:36.724Z,6.46
2023-02-15T16:09:18.095Z,6.36
2023-02-15T16:11:48.418Z,6.23
2023-02-15T16:14:21.759Z,6.13
2023-02-15T16:16:54.479Z,6.05
2023-02-15T16:19:26.759Z,5.98
2023-02-15T16:21:55.364Z,5.88
2023-02-15T16:24:47.707Z,5.80
2023-02-15T16:27:30.371Z,5.71
2023-02-15T16:29:58.029Z,5.63
2023-02-15T16:32:28.359Z,5.55
2023-02-15T16:34:58.518Z,5.48
2023-02-15T16:37:28.447Z,5.41
2023-02-15T16:39:59.431Z,5.33
2023-02-15T16:42:27.190Z,5.24
2023-02-15T16:45:02.004Z,5.16
2023-02-15T16:47:34.234Z,5.11
2023-02-15T16:50:04.885Z,5.04
2023-02-15T16:52:32.783Z,4.97
2023-02-15T16:55:05.692Z,4.90
2023-02-15T16:57:36.404Z,4.82
2023-02-15T17:00:18.594Z,4.75
2023-02-15T17:02:58.652Z,4.68
2023-02-15T17:05:32.966Z,4.62
2023-02-15T17:08:16.498Z,4.55
2023-02-15T17:10:47.039Z,4.48
2023-02-15T17:13:16.057Z,4.42
2023-02-15T17:16:05.066Z,4.36
2023-02-15T17:18:35.092Z,4.28
2023-02-15T17:21:11.770Z,4.22
2023-02-15T17:23:43.694Z,4.17
2023-02-15T17:26:16.393Z,4.13
2023-02-15T17:28:48.625Z,4.09
2023-02-15T17:31:18.760Z,4.04
2023-02-15T17:33:47.960Z,3.98
2023-02-15T17:36:21.952Z,3.93
2023-02-15T17:39:05.334Z,3.89
2023-02-15T17:41:35.345Z,3.81
2023-02-15T17:44:04.274Z,3.72
2023-02-15T17:46:35.881Z,3.62
2023-02-15T17:49:04.785Z,3.54
2023-02-15T17:51:35.524Z,3.48
2023-02-15T17:54:30.606Z,3.44
2023-02-15T17:57:04.851Z,3.39
2023-02-15T17:59:32.923Z,3.30
2023-02-15T18:02:20.237Z,3.20
2023-02-15T18:05:06.127Z,3.08
2023-02-15T18:07:51.893Z,2.99
2023-02-15T18:10:38.861Z,2.95
2023-02-15T18:13:06.890Z,2.92
2023-02-15T18:15:35.326Z,2.90
2023-02-15T18:18:04.518Z,2.90
2023-02-15T18:20:36.441Z,2.88
2023-02-15T18:23:04.192Z,2.87
2023-02-15T18:25:34.600Z,2.85
2023-02-15T18:28:02.622Z,2.82
2023-02-15T18:30:30.825Z,2.82
2023-02-15T18:32:59.352Z,2.79
2023-02-15T18:35:30.604Z,2.76
2023-02-15T18:37:59.867Z,2.72
2023-02-15T18:40:32.447Z,2.67
2023-02-15T18:43:00.154Z,2.62
2023-02-15T18:45:32.314Z,2.58
2023-02-15T18:48:00.034Z,2.55
2023-02-15T18:50:32.457Z,2.50
2023-02-15T18:53:01.918Z,2.44
2023-02-15T18:55:32.041Z,2.42
2023-02-15T18:58:00.667Z,2.43
2023-02-15T19:00:31.643Z,2.40
2023-02-15T19:03:01.518Z,2.31
2023-02-15T19:05:30.702Z,2.26
2023-02-15T19:08:00.600Z,2.14
2023-02-15T19:10:31.844Z,2.02
2023-02-15T19:12:59.673Z,1.96
2023-02-15T19:15:29.790Z,1.93
2023-02-15T19:17:57.896Z,1.84
2023-02-15T19:20:29.609Z,1.72
2023-02-15T19:23:00.815Z,1.64
2023-02-15T19:25:30.293Z,1.63
2023-02-15T19:27:59.362Z,1.62
2023-02-15T19:30:29.783Z,1.61
2023-02-15T19:32:58.989Z,1.57
2023-02-15T19:35:31.385Z,1.50
2023-02-15T19:38:01.323Z,1.45
2023-02-15T19:40:31.959Z,1.40
2023-02-15T19:42:59.552Z,1.33
2023-02-15T19:45:30.580Z,1.29
2023-02-15T19:48:00.313Z,1.24
2023-02-15T19:50:30.601Z,1.22
2023-02-15T19:52:58.385Z,1.21
2023-02-15T19:55:28.202Z,1.19
2023-02-15T19:57:57.858Z,1.15
2023-02-15T20:00:28.638Z,1.12
2023-02-15T20:03:01.502Z,1.08
2023-02-15T20:05:33.448Z,0.99
2023-02-15T20:08:05.983Z,0.88
2023-02-15T20:10:34.652Z,0.77
2023-02-15T20:13:02.918Z,0.71
2023-02-15T20:15:34.071Z,0.70
2023-02-15T20:18:03.799Z,0.72
2023-02-15T20:20:38.833Z,0.72
2023-02-15T20:23:09.486Z,0.69
2023-02-15T20:25:37.478Z,0.62
2023-02-15T20:28:06.509Z,0.56
2023-02-15T20:30:34.223Z,0.49
2023-02-15T20:33:02.782Z,0.42
2023-02-15T20:35:30.788Z,0.33
2023-02-15T20:38:00.646Z,0.23
2023-02-15T20:40:30.285Z,0.15
2023-02-15T20:42:58.656Z,0.14
2023-02-15T20:45:28.088Z,0.12
2023-02-15T20:47:58.547Z,0.05
2023-02-15T20:50:33.150Z,-0.01
2023-02-15T20:53:02.354Z,-0.03
2023-02-15T20:55:31.897Z,-0.07
2023-02-15T20:57:59.826Z,-0.11
2023-02-15T21:00:30.269Z,-0.16
2023-02-15T21:02:59.510Z,-0.19
2023-02-15T21:05:29.739Z,-0.23
2023-02-15T21:07:58.369Z,-0.25
2023-02-15T21:10:28.657Z,-0.27
2023-02-15T21:12:58.954Z,-0.32
2023-02-15T21:15:32.261Z,-0.36
2023-02-15T21:18:02.045Z,-0.39
2023-02-15T21:20:31.533Z,-0.42
2023-02-15T21:23:05.940Z,-0.46
2023-02-15T21:25:36.478Z,-0.52
2023-02-15T21:28:05.391Z,-0.56
2023-02-15T21:30:34.945Z,-0.59
2023-02-15T21:33:07.253Z,-0.65
2023-02-15T21:35:37.162Z,-0.66
2023-02-15T21:38:05.929Z,-0.65
2023-02-15T21:40:35.106Z,-0.61
2023-02-15T21:43:20.767Z,-0.60
2023-02-15T21:46:07.019Z,-0.63
2023-02-15T21:48:34.686Z,-0.63
2023-02-15T21:51:19.577Z,-0.63
2023-02-15T21:53:47.974Z,-0.65
2023-02-15T21:56:17.658Z,-0.68
2023-02-15T21:58:48.040Z,-0.73
2023-02-15T22:01:22.564Z,-0.79
2023-02-15T22:03:50.635Z,-0.84
2023-02-15T22:06:20.774Z,-0.88
2023-02-15T22:08:48.940Z,-0.95
2023-02-15T22:11:18.284Z,-1.05
2023-02-15T22:13:48.508Z,-1.11
2023-02-15T22:16:19.014Z,-1.14
2023-02-15T22:18:50.012Z,-1.15
2023-02-15T22:21:18.540Z,-1.14
2023-02-15T22:23:46.752Z,-1.13
2023-02-15T22:26:22.823Z,-1.13
2023-02-15T22:28:50.840Z,-1.14
2023-02-15T22:31:21.233Z,-1.17
2023-02-15T22:33:50.350Z,-1.22
2023-02-15T22:36:26.877Z,-1.31
2023-02-15T22:38:55.357Z,-1.36
2023-02-15T22:41:26.970Z,-1.36
2023-02-15T22:43:55.830Z,-1.35
2023-02-15T22:46:27.210Z,-1.37
2023-02-15T22:48:54.896Z,-1.39
2023-02-15T22:51:24.529Z,-1.41
2023-02-15T22:53:53.155Z,-1.42
2023-02-15T22:56:27.287Z,-1.42
2023-02-15T22:59:02.533Z,-1.45
2023-02-15T23:01:32.012Z,-1.46
2023-02-15T23:04:03.041Z,-1.43
2023-02-15T23:06:31.750Z,-1.39
2023-02-15T23:09:00.140Z,-1.42
2023-02-15T23:11:28.288Z,-1.51
2023-02-15T23:13:55.900Z,-1.55
2023-02-15T23:16:23.543Z,-1.59
2023-02-15T23:18:51.523Z,-1.58
2023-02-15T23:21:21.926Z,-1.56
2023-02-15T23:23:52.298Z,-1.57
2023-02-15T23:26:23.123Z,-1.56
2023-02-15T23:28:51.912Z,-1.54
2023-02-15T23:31:22.295Z,-1.60
2023-02-15T23:33:51.821Z,-1.74
2023-02-15T23:36:28.286Z,-1.85
2023-02-15T23:38:57.460Z,-1.91
2023-02-15T23:41:29.508Z,-1.96
2023-02-15T23:44:00.177Z,-2.00
2023-02-15T23:46:33.456Z,-2.02
2023-02-15T23:49:01.087Z,-2.01
2023-02-15T23:51:31.257Z,-1.98
2023-02-15T23:53:58.930Z,-1.96
2023-02-15T23:56:26.466Z,-2.05
2023-02-15T23:58:54.222Z,-2.14
